LOWL 210120Z AUTO 11002KT 9999 SCT048 BKN060 11/08 Q1024 LOWL 210050Z AUTO VRB02KT 9999 FEW050 BKN060 11/08 Q1024 LOWL 210020Z AUTO VRB02KT 9999 OVC050 11/07 Q1024 LOWL 202350Z AUTO 04004KT 9999 OVC050 11/08 Q1024 LOWL 202320Z AUTO VRB02KT 9999 BKN050 11/09 Q1024 LOWL 202250Z AUTO 09002KT 9999 FEW050 BKN060 11/09 Q1023 LOWL 202220Z AUTO 09003KT 9999 FEW050 OVC060 11/09 Q1023 LOWL 202150Z AUTO 09004KT 9999 FEW048 OVC060 11/09 Q1023 LOWL 202120Z AUTO VRB02KT 9999 FEW048 SCT050 BKN060 12/09 Q1023 LOWL 202050Z AUTO 08004KT 9999 FEW050 BKN060 12/09 Q1023 NOSIG LOWL 202020Z AUTO 07003KT 040V120 9999 FEW026 OVC060 11/10 Q1023 NOSIG LOWL 201950Z AUTO VRB02KT 9999 FEW050 OVC060 12/09 Q1023 NOSIG LOWL 201920Z AUTO 02004KT 9999 BKN050 12/10 Q1022 NOSIG LOWL 201850Z AUTO 36004KT 9999 OVC050 12/09 Q1022 NOSIG LOWL 201820Z AUTO 36003KT 9999 FEW034 OVC060 12/09 Q1022 NOSIG LOWL 201750Z AUTO 36003KT 9999 FEW050 OVC060 12/09 Q1022 NOSIG LOWL 201720Z AUTO VRB01KT 9999 FEW040 OVC060 13/09 Q1021 NOSIG LOWL 201650Z AUTO VRB01KT 9999 FEW042 BKN050 13/09 Q1021 NOSIG LOWL 201620Z AUTO VRB01KT 9999 FEW044 OVC050 13/09 Q1021 NOSIG LOWL 201550Z VRB01KT 9999 FEW032 OVC050 13/08 Q1020 NOSIG LOWL 201520Z VRB01KT 9999 FEW032 OVC050 13/08 Q1020 NOSIG LOWL 201450Z VRB01KT 9999 FEW036 SCT044 BKN048 13/08 Q1020 NOSIG LOWL 201420Z VRB01KT 9999 FEW026 BKN042 13/08 Q1020 NOSIG LOWL 201350Z VRB02KT 9999 FEW022 BKN042 13/08 Q1020 NOSIG LOWL 201320Z VRB01KT 9999 SCT022 BKN042 13/08 Q1020 NOSIG LOWL 201250Z VRB02KT 9999 BKN022 BKN042 13/08 Q1020 NOSIG LOWL 201220Z VRB02KT 9999 SCT020 BKN040 13/08 Q1020 NOSIG LOWL 201150Z VRB02KT 9999 FEW018 SCT022 BKN035 13/08 Q1020 NOSIG LOWL 201120Z VRB02KT 9999 FEW018 SCT020 BKN035 12/08 Q1020 NOSIG LOWL 201050Z 12003KT 9999 FEW017 SCT025 BKN045 12/08 Q1020 NOSIG LOWL 201020Z 11003KT 9999 FEW015 SCT022 BKN045 12/08 Q1020 NOSIG LOWL 200950Z 12006KT 090V150 9999 -DZ FEW015 BKN024 11/09 Q1020 NOSIG LOWL 200920Z 10003KT 9999 FEW015 BKN022 OVC028 11/07 Q1020 NOSIG LOWL 200850Z 03005KT 350V060 9999 -DZ FEW018 BKN022 11/07 Q1020 NOSIG LOWL 200820Z 04006KT 9999 SCT012 BKN022 OVC030 11/07 Q1019 NOSIG LOWL 200750Z VRB02KT 9999 FEW006 SCT024 OVC030 11/09 Q1019 NOSIG LOWL 200720Z 03003KT 9999 FEW005 SCT022 OVC030 11/09 Q1018 NOSIG LOWL 200650Z 06003KT 9999 -RA FEW005 BKN022 OVC030 11/08 Q1018 NOSIG LOWL 200620Z 09003KT 9999 FEW015 BKN024 OVC033 11/09 Q1018 NOSIG LOWL 200550Z 09005KT 9999 FEW015 OVC025 11/09 Q1018 NOSIG LOWL 200520Z 07003KT 9999 FEW017 OVC025 11/09 Q1018 NOSIG LOWL 200450Z 06003KT 9999 FEW017 OVC025 11/08 Q1017 NOSIG LOWL 200420Z 06004KT 9999 FEW015 BKN024 BKN045 11/09 Q1017 NOSIG LOWL 200350Z 08008KT 9999 FEW015 SCT024 BKN045 11/08 Q1017 NOSIG LOWL 200320Z 07005KT 9999 -DZRA FEW015 BKN025 OVC033 11/09 Q1017 NOSIG LOWL 200250Z AUTO 08005KT 9999 -DZ FEW019 BKN028 12/08 Q1017 REDZ LOWL 200220Z AUTO 09004KT 9999 FEW028 OVC032 12/07 Q1016 LOWL 200150Z AUTO VRB02KT 9999 FEW030 BKN032 12/08 Q1016 LOWL 200120Z AUTO VRB02KT 9999 FEW026 BKN028 12/09 Q1016 LOWL 200050Z AUTO 10006KT 9999 FEW019 OVC026 12/08 Q1016 LOWL 200020Z AUTO 12003KT 090V150 9999 FEW022 BKN026 13/09 Q1016 LOWL 192350Z AUTO 11002KT 9999 FEW026 BKN030 13/10 Q1016 LOWL 192320Z AUTO 09002KT 9999 FEW030 BKN032 13/09 Q1016 LOWL 192250Z AUTO 07004KT 9999 FEW032 BKN034 13/09 Q1016 LOWL 192220Z AUTO 10003KT 070V130 9999 FEW030 BKN032 13/09 Q1016 LOWL 192150Z AUTO 12004KT 9999 FEW026 SCT028 BKN034 13/09 Q1016 LOWL 192120Z AUTO 11004KT 9999 SCT030 BKN042 13/09 Q1015 LOWL 192050Z AUTO 09004KT 9999 FEW036 BKN038 13/08 Q1015 NOSIG LOWL 192020Z AUTO 06008KT 9999 FEW036 BKN038 13/08 Q1015 NOSIG LOWL 191950Z AUTO 07010KT 9999 FEW034 BKN038 14/08 Q1015 NOSIG LOWL 191920Z AUTO 06008KT 9999 FEW036 BKN050 14/09 Q1015 NOSIG LOWL 191850Z AUTO 05011KT 9999 BKN036 14/08 Q1015 NOSIG LOWL 191820Z AUTO 04011KT 9999 BKN036 15/09 Q1014 NOSIG LOWL 191750Z AUTO 04011KT 9999 FEW036 BKN042 15/09 Q1014 NOSIG LOWL 191720Z AUTO 04010KT 9999 FEW034 SCT036 BKN044 15/09 Q1014 NOSIG LOWL 191650Z AUTO 04009KT 9999 FEW032 BKN034 16/10 Q1013 NOSIG LOWL 191620Z AUTO 05010KT 9999 OVC032 16/09 Q1013 NOSIG LOWL 191550Z AUTO 06011KT 9999 SCT032 BKN034 17/10 Q1013 NOSIG LOWL 191520Z AUTO 10008KT 070V130 9999 BKN034 18/11 Q1012 NOSIG LOWL 191450Z 11008KT 080V140 9999 BKN035 19/11 Q1012 NOSIG LOWL 191420Z 10008KT 070V140 9999 SCT035 19/11 Q1012 NOSIG

METAR Messwerte

Zurück zur Übersicht

Ort
m ü. NN
Zeit Temperatur Taupunkt Rel.
Luftfeuchte
Luftdruck:
Altimeter
NN
Station
Wind in Beaufort
(Knoten)
Sichtweite
(Meter)
Wolken
(Meter über Grund)
Wettererscheinung
Linz/Hörsching
313
Di 21.09. 03:2011882 %1024
1025
987
OSO 1 (2)>= 10000Stark bewölkt (1800)
Wolkig (1500)
 
Linz/Hörsching
313
Di 21.09. 02:5011882 %1024
1025
987
Uml 1 (2)>= 10000Stark bewölkt (1800)
Leicht bewölkt (1500)
 
Linz/Hörsching
313
Di 21.09. 02:2011776 %1024
1025
987
Uml 1 (2)>= 10000Bedeckt (1500) 
Linz/Hörsching
313
Di 21.09. 01:5011882 %1024
1025
987
NO 2 (4)>= 10000Bedeckt (1500) 
Linz/Hörsching
313
Di 21.09. 01:2011987 %1024
1025
987
Uml 1 (2)>= 10000Stark bewölkt (1500) 
Linz/Hörsching
313
Di 21.09. 00:5011987 %1023
1024
986
O 1 (2)>= 10000Stark bewölkt (1800)
Leicht bewölkt (1500)
 
Linz/Hörsching
313
Di 21.09. 00:2011987 %1023
1024
986
O 2 (3)>= 10000Bedeckt (1800)
Leicht bewölkt (1500)
 
Linz/Hörsching
313
Mo 20.09. 23:5011987 %1023
1024
986
O 2 (4)>= 10000Bedeckt (1800)
Leicht bewölkt (1500)
 
Linz/Hörsching
313
Mo 20.09. 23:2012982 %1023
1023
986
Uml 1 (2)>= 10000Stark bewölkt (1800)
Wolkig (1500)
Leicht bewölkt (1500)
 
Linz/Hörsching
313
Mo 20.09. 22:5012982 %1023
1023
986
O 2 (4)>= 10000Stark bewölkt (1800)
Leicht bewölkt (1500)
 
Linz/Hörsching
313
Mo 20.09. 22:20111094 %1023
1024
986
ONO 2 (3)
NO - OSO
>= 10000Bedeckt (1800)
Leicht bewölkt (790)
 
Linz/Hörsching
313
Mo 20.09. 21:5012982 %1023
1023
986
Uml 1 (2)>= 10000Bedeckt (1800)
Leicht bewölkt (1500)
 
Linz/Hörsching
313
Mo 20.09. 21:20121088 %1022
1022
985
NNO 2 (4)>= 10000Stark bewölkt (1500) 
Linz/Hörsching
313
Mo 20.09. 20:5012982 %1022
1022
985
N 2 (4)>= 10000Bedeckt (1500) 
Linz/Hörsching
313
Mo 20.09. 20:2012982 %1022
1022
985
N 2 (3)>= 10000Bedeckt (1800)
Leicht bewölkt (1000)
 
Linz/Hörsching
313
Mo 20.09. 19:5012982 %1022
1022
985
N 2 (3)>= 10000Bedeckt (1800)
Leicht bewölkt (1500)
 
Linz/Hörsching
313
Mo 20.09. 19:2013977 %1021
1021
984
Uml 1 (1)>= 10000Bedeckt (1800)
Leicht bewölkt (1200)
 
Linz/Hörsching
313
Mo 20.09. 18:5013977 %1021
1021
984
Uml 1 (1)>= 10000Stark bewölkt (1500)
Leicht bewölkt (1300)
 
Linz/Hörsching
313
Mo 20.09. 18:2013977 %1021
1021
984
Uml 1 (1)>= 10000Bedeckt (1500)
Leicht bewölkt (1300)
 
Linz/Hörsching
313
Mo 20.09. 17:5013872 %1020
1020
983
Uml 1 (1)>= 10000Bedeckt (1500)
Leicht bewölkt (980)
 
Linz/Hörsching
313
Mo 20.09. 17:2013872 %1020
1020
983
Uml 1 (1)>= 10000Bedeckt (1500)
Leicht bewölkt (980)
 
Linz/Hörsching
313
Mo 20.09. 16:5013872 %1020
1020
983
Uml 1 (1)>= 10000Stark bewölkt (1500)
Wolkig (1300)
Leicht bewölkt (1100)
 
Linz/Hörsching
313
Mo 20.09. 16:2013872 %1020
1020
983
Uml 1 (1)>= 10000Stark bewölkt (1300)
Leicht bewölkt (790)
 
Linz/Hörsching
313
Mo 20.09. 15:5013872 %1020
1020
983
Uml 1 (2)>= 10000Stark bewölkt (1300)
Leicht bewölkt (670)
 
Linz/Hörsching
313
Mo 20.09. 15:2013872 %1020
1020
983
Uml 1 (1)>= 10000Stark bewölkt (1300)
Wolkig (670)
 
Linz/Hörsching
313
Mo 20.09. 14:5013872 %1020
1020
983
Uml 1 (2)>= 10000Stark bewölkt (1300)
Stark bewölkt (670)
 
Linz/Hörsching
313
Mo 20.09. 14:2013872 %1020
1020
983
Uml 1 (2)>= 10000Stark bewölkt (1200)
Wolkig (610)
 
Linz/Hörsching
313
Mo 20.09. 13:5013872 %1020
1020
983
Uml 1 (2)>= 10000Stark bewölkt (1100)
Wolkig (670)
Leicht bewölkt (550)
 
Linz/Hörsching
313
Mo 20.09. 13:2012876 %1020
1020
983
Uml 1 (2)>= 10000Stark bewölkt (1100)
Wolkig (610)
Leicht bewölkt (550)
 
Linz/Hörsching
313
Mo 20.09. 12:5012876 %1020
1020
983
OSO 2 (3)>= 10000Stark bewölkt (1400)
Wolkig (760)
Leicht bewölkt (520)
 
Linz/Hörsching
313
Mo 20.09. 12:2012876 %1020
1020
983
OSO 2 (3)>= 10000Stark bewölkt (1400)
Wolkig (670)
Leicht bewölkt (460)
 
Linz/Hörsching
313
Mo 20.09. 11:5011987 %1020
1021
983
OSO 2 (6)
O - SSO
>= 10000Stark bewölkt (730)
Leicht bewölkt (460)
Nieselregen (schwach)
Linz/Hörsching
313
Mo 20.09. 11:2011776 %1020
1021
983
O 2 (3)>= 10000Bedeckt (850)
Stark bewölkt (670)
Leicht bewölkt (460)
 
Linz/Hörsching
313
Mo 20.09. 10:5011776 %1020
1021
983
NNO 2 (5)
N - ONO
>= 10000Stark bewölkt (670)
Leicht bewölkt (550)
Nieselregen (schwach)
Linz/Hörsching
313
Mo 20.09. 10:2011776 %1019
1020
982
NO 2 (6)>= 10000Bedeckt (910)
Stark bewölkt (670)
Wolkig (370)
 
Linz/Hörsching
313
Mo 20.09. 09:5011987 %1019
1020
982
Uml 1 (2)>= 10000Bedeckt (910)
Wolkig (730)
Leicht bewölkt (180)
 
Linz/Hörsching
313
Mo 20.09. 09:2011987 %1018
1019
981
NNO 2 (3)>= 10000Bedeckt (910)
Wolkig (670)
Leicht bewölkt (150)
 
Linz/Hörsching
313
Mo 20.09. 08:5011882 %1018
1019
981
ONO 2 (3)>= 10000Bedeckt (910)
Stark bewölkt (670)
Leicht bewölkt (150)
Regen (schwach)
Linz/Hörsching
313
Mo 20.09. 08:2011987 %1018
1019
981
O 2 (3)>= 10000Bedeckt (1000)
Stark bewölkt (730)
Leicht bewölkt (460)
 
Linz/Hörsching
313
Mo 20.09. 07:5011987 %1018
1019
981
O 2 (5)>= 10000Bedeckt (760)
Leicht bewölkt (460)
 
Linz/Hörsching
313
Mo 20.09. 07:2011987 %1018
1019
981
ONO 2 (3)>= 10000Bedeckt (760)
Leicht bewölkt (520)
 
Linz/Hörsching
313
Mo 20.09. 06:5011882 %1017
1018
980
ONO 2 (3)>= 10000Bedeckt (760)
Leicht bewölkt (520)
 
Linz/Hörsching
313
Mo 20.09. 06:2011987 %1017
1018
980
ONO 2 (4)>= 10000Stark bewölkt (1400)
Stark bewölkt (730)
Leicht bewölkt (460)
 
Linz/Hörsching
313
Mo 20.09. 05:5011882 %1017
1018
980
O 3 (8)>= 10000Stark bewölkt (1400)
Wolkig (730)
Leicht bewölkt (460)
 
Linz/Hörsching
313
Mo 20.09. 05:2011987 %1017
1018
980
ONO 2 (5)>= 10000Bedeckt (1000)
Stark bewölkt (760)
Leicht bewölkt (460)
Nieselregen/Regen (schwach)
Linz/Hörsching
313
Mo 20.09. 04:5012876 %1017
1017
980
O 2 (5)>= 10000Stark bewölkt (850)
Leicht bewölkt (580)
Nieselregen (schwach)
Linz/Hörsching
313
Mo 20.09. 04:2012771 %1016
1016
979
O 2 (4)>= 10000Bedeckt (980)
Leicht bewölkt (850)
 
Linz/Hörsching
313
Mo 20.09. 03:5012876 %1016
1016
979
Uml 1 (2)>= 10000Stark bewölkt (980)
Leicht bewölkt (910)
 
Linz/Hörsching
313
Mo 20.09. 03:2012982 %1016
1016
979
Uml 1 (2)>= 10000Stark bewölkt (850)
Leicht bewölkt (790)
 
Linz/Hörsching
313
Mo 20.09. 02:5012876 %1016
1016
979
O 2 (6)>= 10000Bedeckt (790)
Leicht bewölkt (580)
 
Linz/Hörsching
313
Mo 20.09. 02:2013977 %1016
1016
979
OSO 2 (3)
O - SSO
>= 10000Stark bewölkt (790)
Leicht bewölkt (670)
 
Linz/Hörsching
313
Mo 20.09. 01:50131082 %1016
1016
979
OSO 1 (2)>= 10000Stark bewölkt (910)
Leicht bewölkt (790)
 
Linz/Hörsching
313
Mo 20.09. 01:2013977 %1016
1016
979
O 1 (2)>= 10000Stark bewölkt (980)
Leicht bewölkt (910)
 
Linz/Hörsching
313
Mo 20.09. 00:5013977 %1016
1016
979
ONO 2 (4)>= 10000Stark bewölkt (1000)
Leicht bewölkt (980)
 
Linz/Hörsching
313
Mo 20.09. 00:2013977 %1016
1016
979
O 2 (3)
ONO - SO
>= 10000Stark bewölkt (980)
Leicht bewölkt (910)
 
Linz/Hörsching
313
So 19.09. 23:5013977 %1016
1016
979
OSO 2 (4)>= 10000Stark bewölkt (1000)
Wolkig (850)
Leicht bewölkt (790)
 
Linz/Hörsching
313
So 19.09. 23:2013977 %1015
1015
978
OSO 2 (4)>= 10000Stark bewölkt (1300)
Wolkig (910)
 
Linz/Hörsching
313
So 19.09. 22:5013872 %1015
1015
978
O 2 (4)>= 10000Stark bewölkt (1200)
Leicht bewölkt (1100)
 
Linz/Hörsching
313
So 19.09. 22:2013872 %1015
1015
978
ONO 3 (8)>= 10000Stark bewölkt (1200)
Leicht bewölkt (1100)
 
Linz/Hörsching
313
So 19.09. 21:5014867 %1015
1015
978
ONO 3 (10)>= 10000Stark bewölkt (1200)
Leicht bewölkt (1000)
 
Linz/Hörsching
313
So 19.09. 21:2014972 %1015
1015
978
ONO 3 (8)>= 10000Stark bewölkt (1500)
Leicht bewölkt (1100)
 
Linz/Hörsching
313
So 19.09. 20:5014867 %1015
1015
978
NO 4 (11)>= 10000Stark bewölkt (1100) 
Linz/Hörsching
313
So 19.09. 20:2015967 %1014
1014
977
NO 4 (11)>= 10000Stark bewölkt (1100) 
Linz/Hörsching
313
So 19.09. 19:5015967 %1014
1014
977
NO 4 (11)>= 10000Stark bewölkt (1300)
Leicht bewölkt (1100)
 
Linz/Hörsching
313
So 19.09. 19:2015967 %1014
1014
977
NO 3 (10)>= 10000Stark bewölkt (1300)
Wolkig (1100)
Leicht bewölkt (1000)
 
Linz/Hörsching
313
So 19.09. 18:50161068 %1013
1013
976
NO 3 (9)>= 10000Stark bewölkt (1000)
Leicht bewölkt (980)
 
Linz/Hörsching
313
So 19.09. 18:2016963 %1013
1013
976
NO 3 (10)>= 10000Bedeckt (980) 
Linz/Hörsching
313
So 19.09. 17:50171063 %1013
1013
976
ONO 4 (11)>= 10000Stark bewölkt (1000)
Wolkig (980)
 
Linz/Hörsching
313
So 19.09. 17:20181164 %1012
1012
975
O 3 (8)
ONO - SO
>= 10000Stark bewölkt (1000) 
Linz/Hörsching
313
So 19.09. 16:50191160 %1012
1011
975
OSO 3 (8)
O - SO
>= 10000Stark bewölkt (1100) 
Linz/Hörsching
313
So 19.09. 16:20191160 %1012
1011
975
O 3 (8)
ONO - SO
>= 10000Wolkig (1100) 

Altimeter: Einstellung am Altimeter (Höhenmesser), die Höhe 0 muss auf diesen Luftdruckwert zeigen, damit das Gerät die Stationshöhe richtig anzeigt.

NN: Luftdruck reduziert auf "Normal Null", auf Meereshöhe, dieser von der Temperatur abhängige Wert wird bisweilen unkorrekt einfach als "Luftdruck" bezeichnet. Eigentlich nur eine fiktive Größe, die es erlaubt, Stationen auf unterschiedlichen Höhen miteinander zu vergleichen.

Station: Realer Luftdruck an der Station.